sensor_id;sensor_type;location;lat;lon;timestamp;pressure;altitude;pressure_sealevel;temperature;humidity
16100;BME280;8154;50.830;12.082;2022-11-09T00:01:12;99017.78;;;21.84;42.20
16100;BME280;8154;50.830;12.082;2022-11-09T00:04:00;99019.78;;;21.75;42.46
16100;BME280;8154;50.830;12.082;2022-11-09T00:06:45;99012.88;;;21.81;42.25
16100;BME280;8154;50.830;12.082;2022-11-09T00:09:29;99011.25;;;21.86;42.19
16100;BME280;8154;50.830;12.082;2022-11-09T00:12:13;99011.69;;;21.90;42.08
16100;BME280;8154;50.830;12.082;2022-11-09T00:14:57;99006.75;;;21.87;42.15
16100;BME280;8154;50.830;12.082;2022-11-09T00:17:42;99011.44;;;21.85;41.98
16100;BME280;8154;50.830;12.082;2022-11-09T00:20:26;99012.03;;;21.80;42.25
16100;BME280;8154;50.830;12.082;2022-11-09T00:23:10;99011.00;;;21.81;42.36
16100;BME280;8154;50.830;12.082;2022-11-09T00:25:59;99010.00;;;21.82;42.22
16100;BME280;8154;50.830;12.082;2022-11-09T00:28:43;99015.56;;;21.87;42.13
16100;BME280;8154;50.830;12.082;2022-11-09T00:31:28;99022.28;;;21.83;42.11
16100;BME280;8154;50.830;12.082;2022-11-09T00:34:13;99021.03;;;21.79;42.22
16100;BME280;8154;50.830;12.082;2022-11-09T00:36:57;99018.97;;;21.75;42.29
16100;BME280;8154;50.830;12.082;2022-11-09T00:39:41;99020.75;;;21.74;42.40
16100;BME280;8154;50.830;12.082;2022-11-09T00:42:26;99012.03;;;21.80;42.29
16100;BME280;8154;50.830;12.082;2022-11-09T00:45:11;99015.34;;;21.82;42.19
16100;BME280;8154;50.830;12.082;2022-11-09T00:47:54;99012.03;;;21.80;42.22
16100;BME280;8154;50.830;12.082;2022-11-09T00:50:38;99005.69;;;21.81;42.23
16100;BME280;8154;50.830;12.082;2022-11-09T00:53:23;99006.06;;;21.78;42.31
16100;BME280;8154;50.830;12.082;2022-11-09T00:56:11;99007.09;;;21.77;42.19
16100;BME280;8154;50.830;12.082;2022-11-09T00:58:56;99003.81;;;21.75;42.34
16100;BME280;8154;50.830;12.082;2022-11-09T01:01:40;99006.47;;;21.75;42.37
16100;BME280;8154;50.830;12.082;2022-11-09T01:04:24;99016.13;;;21.76;42.31
16100;BME280;8154;50.830;12.082;2022-11-09T01:07:08;98998.72;;;21.80;42.03
16100;BME280;8154;50.830;12.082;2022-11-09T01:09:52;99014.06;;;21.78;42.17
16100;BME280;8154;50.830;12.082;2022-11-09T01:12:36;99004.25;;;21.79;42.19
16100;BME280;8154;50.830;12.082;2022-11-09T01:15:21;98999.50;;;21.74;42.44
16100;BME280;8154;50.830;12.082;2022-11-09T01:18:05;98998.50;;;21.75;42.33
16100;BME280;8154;50.830;12.082;2022-11-09T01:20:49;99000.16;;;21.76;42.29
16100;BME280;8154;50.830;12.082;2022-11-09T01:23:34;99001.41;;;21.80;42.22
16100;BME280;8154;50.830;12.082;2022-11-09T01:26:18;98991.59;;;21.81;42.26
16100;BME280;8154;50.830;12.082;2022-11-09T01:29:02;98988.09;;;21.80;42.12
16100;BME280;8154;50.830;12.082;2022-11-09T01:31:46;98985.88;;;21.84;42.15
16100;BME280;8154;50.830;12.082;2022-11-09T01:34:31;98979.28;;;21.80;42.16
16100;BME280;8154;50.830;12.082;2022-11-09T01:37:16;98982.13;;;21.78;42.03
16100;BME280;8154;50.830;12.082;2022-11-09T01:39:59;98976.03;;;21.78;42.25
16100;BME280;8154;50.830;12.082;2022-11-09T01:42:44;98986.03;;;21.76;42.22
16100;BME280;8154;50.830;12.082;2022-11-09T01:45:29;98989.50;;;21.76;42.22
16100;BME280;8154;50.830;12.082;2022-11-09T01:48:17;98990.75;;;21.80;42.09
16100;BME280;8154;50.830;12.082;2022-11-09T01:51:08;98994.00;;;21.76;42.31
16100;BME280;8154;50.830;12.082;2022-11-09T01:54:00;98990.31;;;21.77;42.16
16100;BME280;8154;50.830;12.082;2022-11-09T01:56:50;98987.84;;;21.75;42.35
16100;BME280;8154;50.830;12.082;2022-11-09T01:59:39;98981.75;;;21.81;42.19
16100;BME280;8154;50.830;12.082;2022-11-09T02:02:25;98984.66;;;21.86;42.13
16100;BME280;8154;50.830;12.082;2022-11-09T02:05:11;98990.16;;;21.85;42.18
16100;BME280;8154;50.830;12.082;2022-11-09T02:07:58;98989.97;;;21.86;41.98
16100;BME280;8154;50.830;12.082;2022-11-09T02:10:59;98980.16;;;21.87;42.00
16100;BME280;8154;50.830;12.082;2022-11-09T02:13:48;98977.31;;;21.88;42.04
16100;BME280;8154;50.830;12.082;2022-11-09T02:16:35;98977.66;;;21.79;42.28
16100;BME280;8154;50.830;12.082;2022-11-09T02:19:20;98965.38;;;21.78;42.01
16100;BME280;8154;50.830;12.082;2022-11-09T02:22:04;98962.53;;;21.79;42.22
16100;BME280;8154;50.830;12.082;2022-11-09T02:24:48;98963.72;;;21.77;42.23
16100;BME280;8154;50.830;12.082;2022-11-09T02:27:32;98971.88;;;21.75;42.39
16100;BME280;8154;50.830;12.082;2022-11-09T02:30:18;98966.81;;;21.80;42.19
16100;BME280;8154;50.830;12.082;2022-11-09T02:33:03;98969.88;;;21.77;42.31
16100;BME280;8154;50.830;12.082;2022-11-09T02:35:47;98970.94;;;21.83;42.21
16100;BME280;8154;50.830;12.082;2022-11-09T02:38:32;98960.69;;;21.86;42.08
16100;BME280;8154;50.830;12.082;2022-11-09T02:41:16;98969.50;;;21.87;42.08
16100;BME280;8154;50.830;12.082;2022-11-09T02:44:00;98978.94;;;21.89;42.13
16100;BME280;8154;50.830;12.082;2022-11-09T02:46:45;98966.66;;;21.88;42.05
16100;BME280;8154;50.830;12.082;2022-11-09T02:49:30;98966.66;;;21.88;42.09
16100;BME280;8154;50.830;12.082;2022-11-09T02:52:13;98976.06;;;21.91;41.87
16100;BME280;8154;50.830;12.082;2022-11-09T02:54:57;98977.69;;;21.85;42.13
16100;BME280;8154;50.830;12.082;2022-11-09T02:57:42;98967.00;;;21.79;42.30
16100;BME280;8154;50.830;12.082;2022-11-09T03:00:26;98969.09;;;21.83;42.30
16100;BME280;8154;50.830;12.082;2022-11-09T03:03:10;98975.66;;;21.87;41.96
16100;BME280;8154;50.830;12.082;2022-11-09T03:05:55;98964.19;;;21.87;42.16
16100;BME280;8154;50.830;12.082;2022-11-09T03:08:39;98974.63;;;21.88;42.07
16100;BME280;8154;50.830;12.082;2022-11-09T03:11:23;98970.31;;;21.81;42.36
16100;BME280;8154;50.830;12.082;2022-11-09T03:14:08;98967.06;;;21.85;42.18
16100;BME280;8154;50.830;12.082;2022-11-09T03:16:52;98970.94;;;21.89;42.10
16100;BME280;8154;50.830;12.082;2022-11-09T03:19:37;98975.88;;;21.92;41.98
16100;BME280;8154;50.830;12.082;2022-11-09T03:22:21;98978.94;;;21.89;41.99
16100;BME280;8154;50.830;12.082;2022-11-09T03:25:06;98983.06;;;21.92;41.96
16100;BME280;8154;50.830;12.082;2022-11-09T03:27:55;98979.56;;;21.91;41.88
16100;BME280;8154;50.830;12.082;2022-11-09T03:30:39;98984.25;;;21.89;42.22
16100;BME280;8154;50.830;12.082;2022-11-09T03:33:24;98978.94;;;21.89;42.00
16100;BME280;8154;50.830;12.082;2022-11-09T03:36:08;98989.97;;;21.86;42.06
16100;BME280;8154;50.830;12.082;2022-11-09T03:38:53;98987.50;;;21.85;42.12
16100;BME280;8154;50.830;12.082;2022-11-09T03:41:37;98994.25;;;21.81;42.29
16100;BME280;8154;50.830;12.082;2022-11-09T03:44:21;98983.41;;;21.82;42.21
16100;BME280;8154;50.830;12.082;2022-11-09T03:47:05;98997.34;;;21.84;42.24
16100;BME280;8154;50.830;12.082;2022-11-09T03:49:50;98994.25;;;21.81;42.28
16100;BME280;8154;50.830;12.082;2022-11-09T03:52:35;98988.97;;;21.87;41.99
16100;BME280;8154;50.830;12.082;2022-11-09T03:55:19;98993.91;;;21.90;42.13
16100;BME280;8154;50.830;12.082;2022-11-09T03:58:05;98999.63;;;21.87;42.14
16100;BME280;8154;50.830;12.082;2022-11-09T04:00:49;99012.91;;;21.87;42.22
16100;BME280;8154;50.830;12.082;2022-11-09T04:03:33;99009.03;;;21.90;42.09
16100;BME280;8154;50.830;12.082;2022-11-09T04:06:17;99013.75;;;21.94;41.94
16100;BME280;8154;50.830;12.082;2022-11-09T04:09:02;99003.72;;;21.90;42.05
16100;BME280;8154;50.830;12.082;2022-11-09T04:11:46;99005.94;;;21.86;42.17
16100;BME280;8154;50.830;12.082;2022-11-09T04:14:30;99005.94;;;21.86;42.11
16100;BME280;8154;50.830;12.082;2022-11-09T04:17:14;99006.53;;;21.82;42.13
16100;BME280;8154;50.830;12.082;2022-11-09T04:19:59;99009.63;;;21.85;42.10
16100;BME280;8154;50.830;12.082;2022-11-09T04:22:43;99013.66;;;21.81;42.27
16100;BME280;8154;50.830;12.082;2022-11-09T04:25:31;99007.34;;;21.82;42.28
16100;BME280;8154;50.830;12.082;2022-11-09T04:28:16;98997.53;;;21.83;42.13
16100;BME280;8154;50.830;12.082;2022-11-09T04:31:00;98999.38;;;21.82;42.15
16100;BME280;8154;50.830;12.082;2022-11-09T04:33:48;99005.31;;;21.84;42.14
16100;BME280;8154;50.830;12.082;2022-11-09T04:36:33;98994.91;;;21.89;42.06
16100;BME280;8154;50.830;12.082;2022-11-09T04:39:20;98999.81;;;21.86;42.22
16100;BME280;8154;50.830;12.082;2022-11-09T04:42:04;98998.38;;;21.90;41.91
16100;BME280;8154;50.830;12.082;2022-11-09T04:44:48;99017.44;;;21.93;41.78
16100;BME280;8154;50.830;12.082;2022-11-09T04:47:32;99016.19;;;21.89;41.91
16100;BME280;8154;50.830;12.082;2022-11-09T04:50:17;99019.03;;;21.88;42.04
16100;BME280;8154;50.830;12.082;2022-11-09T04:53:11;98995.03;;;21.81;42.16
16100;BME280;8154;50.830;12.082;2022-11-09T04:55:56;99001.00;;;21.83;42.10
16100;BME280;8154;50.830;12.082;2022-11-09T04:58:41;98998.94;;;21.79;42.29
16100;BME280;8154;50.830;12.082;2022-11-09T05:01:25;99015.53;;;21.81;42.19
16100;BME280;8154;50.830;12.082;2022-11-09T05:04:09;99013.88;;;21.80;42.37
16100;BME280;8154;50.830;12.082;2022-11-09T05:06:53;99010.00;;;21.82;42.34
16100;BME280;8154;50.830;12.082;2022-11-09T05:09:37;99007.78;;;21.86;42.21
16100;BME280;8154;50.830;12.082;2022-11-09T05:12:21;99005.53;;;21.89;42.06
16100;BME280;8154;50.830;12.082;2022-11-09T05:15:06;99010.06;;;21.89;42.08
16100;BME280;8154;50.830;12.082;2022-11-09T05:17:51;99018.06;;;21.95;42.10
16100;BME280;8154;50.830;12.082;2022-11-09T05:20:35;99024.59;;;21.93;41.90
16100;BME280;8154;50.830;12.082;2022-11-09T05:23:19;99027.47;;;21.91;41.96
16100;BME280;8154;50.830;12.082;2022-11-09T05:26:24;99033.81;;;21.90;41.98
16100;BME280;8154;50.830;12.082;2022-11-09T05:29:10;99037.47;;;21.89;42.01
16100;BME280;8154;50.830;12.082;2022-11-09T05:31:54;99040.91;;;21.83;42.24
16100;BME280;8154;50.830;12.082;2022-11-09T05:34:38;99032.94;;;21.83;42.16
16100;BME280;8154;50.830;12.082;2022-11-09T05:37:23;99028.63;;;21.82;42.29
16100;BME280;8154;50.830;12.082;2022-11-09T05:40:07;99018.19;;;21.81;42.31
16100;BME280;8154;50.830;12.082;2022-11-09T05:42:52;99028.03;;;21.87;42.14
16100;BME280;8154;50.830;12.082;2022-11-09T05:45:36;99016.75;;;21.85;42.06
16100;BME280;8154;50.830;12.082;2022-11-09T05:48:20;99024.56;;;21.86;42.09
16100;BME280;8154;50.830;12.082;2022-11-09T05:51:06;99016.97;;;21.83;42.34
16100;BME280;8154;50.830;12.082;2022-11-09T05:53:51;99012.91;;;21.87;42.13
16100;BME280;8154;50.830;12.082;2022-11-09T05:56:36;99015.19;;;21.90;42.06
16100;BME280;8154;50.830;12.082;2022-11-09T05:59:20;99007.84;;;21.99;41.86
16100;BME280;8154;50.830;12.082;2022-11-09T06:02:04;99021.09;;;21.92;41.89
16100;BME280;8154;50.830;12.082;2022-11-09T06:04:49;99026.63;;;21.91;42.03
16100;BME280;8154;50.830;12.082;2022-11-09T06:07:33;99021.28;;;21.84;42.09
16100;BME280;8154;50.830;12.082;2022-11-09T06:10:17;99018.63;;;21.84;42.20
16100;BME280;8154;50.830;12.082;2022-11-09T06:13:02;99019.81;;;21.82;42.30
16100;BME280;8154;50.830;12.082;2022-11-09T06:15:52;99023.50;;;21.81;42.21
16100;BME280;8154;50.830;12.082;2022-11-09T06:18:36;99026.97;;;21.81;42.39
16100;BME280;8154;50.830;12.082;2022-11-09T06:21:20;99016.31;;;21.81;42.27
16100;BME280;8154;50.830;12.082;2022-11-09T06:24:05;99015.13;;;21.84;42.31
16100;BME280;8154;50.830;12.082;2022-11-09T06:26:49;99010.44;;;21.86;42.23
16100;BME280;8154;50.830;12.082;2022-11-09T06:29:33;99011.88;;;21.88;42.11
16100;BME280;8154;50.830;12.082;2022-11-09T06:32:18;99018.44;;;21.92;41.95
16100;BME280;8154;50.830;12.082;2022-11-09T06:35:02;99021.09;;;21.92;41.91
16100;BME280;8154;50.830;12.082;2022-11-09T06:37:47;99020.72;;;21.95;41.92
16100;BME280;8154;50.830;12.082;2022-11-09T06:40:31;99022.31;;;21.90;42.09
16100;BME280;8154;50.830;12.082;2022-11-09T06:43:17;99015.78;;;21.86;42.27
16100;BME280;8154;50.830;12.082;2022-11-09T06:46:02;99015.38;;;21.89;42.07
16100;BME280;8154;50.830;12.082;2022-11-09T06:48:47;99014.53;;;21.88;42.01
16100;BME280;8154;50.830;12.082;2022-11-09T06:51:32;99010.66;;;21.84;42.19
16100;BME280;8154;50.830;12.082;2022-11-09T06:54:16;99017.41;;;21.87;42.16
16100;BME280;8154;50.830;12.082;2022-11-09T06:57:00;99021.88;;;21.86;42.19
16100;BME280;8154;50.830;12.082;2022-11-09T06:59:45;99023.38;;;21.89;42.16
16100;BME280;8154;50.830;12.082;2022-11-09T07:02:29;99018.63;;;21.91;41.97
16100;BME280;8154;50.830;12.082;2022-11-09T07:05:13;99021.50;;;21.89;42.08
16100;BME280;8154;50.830;12.082;2022-11-09T07:07:57;99018.03;;;21.89;42.05
16100;BME280;8154;50.830;12.082;2022-11-09T07:10:43;99026.47;;;21.99;41.85
16100;BME280;8154;50.830;12.082;2022-11-09T07:13:27;99030.16;;;21.98;41.96
16100;BME280;8154;50.830;12.082;2022-11-09T07:16:14;99033.59;;;21.92;41.91
16100;BME280;8154;50.830;12.082;2022-11-09T07:19:00;99041.16;;;21.88;42.11
16100;BME280;8154;50.830;12.082;2022-11-09T07:21:45;99058.53;;;21.84;42.10
16100;BME280;8154;50.830;12.082;2022-11-09T07:24:30;99062.63;;;21.87;42.16
16100;BME280;8154;50.830;12.082;2022-11-09T07:27:14;99048.88;;;21.83;42.17
16100;BME280;8154;50.830;12.082;2022-11-09T07:29:58;99043.63;;;21.90;42.00
16100;BME280;8154;50.830;12.082;2022-11-09T07:32:42;99047.69;;;21.86;42.15
16100;BME280;8154;50.830;12.082;2022-11-09T07:35:27;99047.09;;;21.90;42.05
16100;BME280;8154;50.830;12.082;2022-11-09T07:38:12;99052.44;;;21.90;42.03
16100;BME280;8154;50.830;12.082;2022-11-09T07:41:00;99056.53;;;21.93;42.03
16100;BME280;8154;50.830;12.082;2022-11-09T07:43:44;99046.72;;;21.93;41.95
16100;BME280;8154;50.830;12.082;2022-11-09T07:46:28;99046.72;;;21.93;41.92
16100;BME280;8154;50.830;12.082;2022-11-09T07:49:14;99056.78;;;21.98;41.92
16100;BME280;8154;50.830;12.082;2022-11-09T07:51:59;99052.84;;;21.94;41.94
16100;BME280;8154;50.830;12.082;2022-11-09T07:54:43;99054.06;;;21.91;42.03
16100;BME280;8154;50.830;12.082;2022-11-09T07:57:28;99049.78;;;21.90;41.99
16100;BME280;8154;50.830;12.082;2022-11-09T08:00:12;99057.13;;;21.88;42.13
16100;BME280;8154;50.830;12.082;2022-11-09T08:02:58;99066.50;;;21.84;42.32
16100;BME280;8154;50.830;12.082;2022-11-09T08:05:42;99053.00;;;21.86;42.15
16100;BME280;8154;50.830;12.082;2022-11-09T08:08:26;99045.44;;;21.89;42.16
16100;BME280;8154;50.830;12.082;2022-11-09T08:11:10;99055.47;;;21.87;42.13
16100;BME280;8154;50.830;12.082;2022-11-09T08:13:55;99052.63;;;21.89;42.19
16100;BME280;8154;50.830;12.082;2022-11-09T08:16:39;99061.84;;;21.93;41.99
16100;BME280;8154;50.830;12.082;2022-11-09T08:19:23;99049.56;;;21.92;42.06
16100;BME280;8154;50.830;12.082;2022-11-09T08:22:07;99049.59;;;21.98;41.93
16100;BME280;8154;50.830;12.082;2022-11-09T08:24:53;99040.38;;;21.94;42.00
16100;BME280;8154;50.830;12.082;2022-11-09T08:27:38;99051.66;;;21.96;41.81
16100;BME280;8154;50.830;12.082;2022-11-09T08:30:25;99065.53;;;21.92;41.94
16100;BME280;8154;50.830;12.082;2022-11-09T08:33:10;99061.84;;;21.93;41.97
16100;BME280;8154;50.830;12.082;2022-11-09T08:35:55;99064.06;;;21.89;42.08
16100;BME280;8154;50.830;12.082;2022-11-09T08:38:40;99071.84;;;21.84;42.25
16100;BME280;8154;50.830;12.082;2022-11-09T08:41:24;99077.94;;;21.85;42.22
16100;BME280;8154;50.830;12.082;2022-11-09T08:44:09;99081.25;;;21.87;42.28
16100;BME280;8154;50.830;12.082;2022-11-09T08:46:53;99076.19;;;21.92;42.12
16100;BME280;8154;50.830;12.082;2022-11-09T08:49:36;99072.69;;;21.91;42.02
16100;BME280;8154;50.830;12.082;2022-11-09T08:52:21;99068.81;;;21.94;42.05
16100;BME280;8154;50.830;12.082;2022-11-09T08:55:05;99060.44;;;21.97;41.94
16100;BME280;8154;50.830;12.082;2022-11-09T08:57:55;99065.34;;;22.00;41.93
16100;BME280;8154;50.830;12.082;2022-11-09T09:00:39;99068.59;;;21.95;41.87
16100;BME280;8154;50.830;12.082;2022-11-09T09:03:24;99074.97;;;21.94;41.94
16100;BME280;8154;50.830;12.082;2022-11-09T09:06:08;99084.56;;;21.89;42.19
16100;BME280;8154;50.830;12.082;2022-11-09T09:08:52;99090.25;;;21.86;42.15
16100;BME280;8154;50.830;12.082;2022-11-09T09:11:36;99091.69;;;21.88;42.14
16100;BME280;8154;50.830;12.082;2022-11-09T09:14:20;99088.78;;;21.83;42.22
16100;BME280;8154;50.830;12.082;2022-11-09T09:17:05;99089.44;;;21.85;42.37
16100;BME280;8154;50.830;12.082;2022-11-09T09:19:49;99086.78;;;21.85;42.27
16100;BME280;8154;50.830;12.082;2022-11-09T09:22:33;99071.63;;;21.86;42.20
16100;BME280;8154;50.830;12.082;2022-11-09T09:25:18;99068.97;;;21.86;42.18
16100;BME280;8154;50.830;12.082;2022-11-09T09:28:02;99065.34;;;21.93;42.04
16100;BME280;8154;50.830;12.082;2022-11-09T09:30:46;99059.38;;;21.91;42.12
16100;BME280;8154;50.830;12.082;2022-11-09T09:33:30;99055.09;;;21.90;42.11
16100;BME280;8154;50.830;12.082;2022-11-09T09:36:20;99068.81;;;21.94;41.94
16100;BME280;8154;50.830;12.082;2022-11-09T09:39:05;99080.28;;;21.94;42.00
16100;BME280;8154;50.830;12.082;2022-11-09T09:42:00;99073.72;;;21.90;42.04
16100;BME280;8154;50.830;12.082;2022-11-09T09:51:01;99057.56;;;21.92;42.14
16100;BME280;8154;50.830;12.082;2022-11-09T09:53:53;99054.25;;;21.90;42.15
16100;BME280;8154;50.830;12.082;2022-11-09T09:56:42;99060.59;;;21.89;42.19
16100;BME280;8154;50.830;12.082;2022-11-09T09:59:39;99051.59;;;21.90;42.17
16100;BME280;8154;50.830;12.082;2022-11-09T10:02:26;99045.28;;;21.97;42.04
16100;BME280;8154;50.830;12.082;2022-11-09T10:05:14;99044.28;;;21.98;42.00
16100;BME280;8154;50.830;12.082;2022-11-09T10:14:52;99018.44;;;21.92;42.10
16100;BME280;8154;50.830;12.082;2022-11-09T10:24:22;99031.75;;;21.92;42.18
16100;BME280;8154;50.830;12.082;2022-11-09T10:30:15;99007.00;;;21.92;42.27
16100;BME280;8154;50.830;12.082;2022-11-09T10:33:13;98998.19;;;21.91;42.15
16100;BME280;8154;50.830;12.082;2022-11-09T10:38:57;98993.31;;;21.95;42.07
16100;BME280;8154;50.830;12.082;2022-11-09T10:41:44;98985.72;;;21.92;42.06
16100;BME280;8154;50.830;12.082;2022-11-09T10:44:31;98976.31;;;21.96;42.15
16100;BME280;8154;50.830;12.082;2022-11-09T10:47:17;98961.56;;;21.93;42.10
16100;BME280;8154;50.830;12.082;2022-11-09T10:50:31;98953.59;;;21.93;42.16
16100;BME280;8154;50.830;12.082;2022-11-09T10:53:20;98962.97;;;21.89;42.24
16100;BME280;8154;50.830;12.082;2022-11-09T10:56:17;98937.78;;;21.85;42.16
16100;BME280;8154;50.830;12.082;2022-11-09T10:59:02;98949.47;;;21.84;42.28
16100;BME280;8154;50.830;12.082;2022-11-09T11:05:19;98968.28;;;21.89;42.18
16100;BME280;8154;50.830;12.082;2022-11-09T11:08:22;98974.19;;;21.85;42.33
16100;BME280;8154;50.830;12.082;2022-11-09T11:14:14;98991.25;;;21.97;42.02
16100;BME280;8154;50.830;12.082;2022-11-09T11:17:00;98987.34;;;21.93;42.04
16100;BME280;8154;50.830;12.082;2022-11-09T11:19:44;98998.00;;;21.93;42.09
16100;BME280;8154;50.830;12.082;2022-11-09T11:22:28;98983.84;;;21.92;42.00
16100;BME280;8154;50.830;12.082;2022-11-09T11:25:21;98987.56;;;21.91;42.22
16100;BME280;8154;50.830;12.082;2022-11-09T11:28:20;98996.75;;;21.89;42.21
16100;BME280;8154;50.830;12.082;2022-11-09T11:31:17;99005.53;;;21.89;42.20
16100;BME280;8154;50.830;12.082;2022-11-09T11:34:07;99005.53;;;21.89;42.05
16100;BME280;8154;50.830;12.082;2022-11-09T11:40:25;98998.72;;;21.80;42.34
16100;BME280;8154;50.830;12.082;2022-11-09T11:43:38;99001.25;;;21.88;42.25
16100;BME280;8154;50.830;12.082;2022-11-09T11:46:46;99007.97;;;21.84;42.44
16100;BME280;8154;50.830;12.082;2022-11-09T11:49:55;99005.53;;;21.89;42.21
16100;BME280;8154;50.830;12.082;2022-11-09T11:53:16;99013.75;;;21.94;42.15
16100;BME280;8154;50.830;12.082;2022-11-09T12:02:50;99035.69;;;21.96;42.19
16100;BME280;8154;50.830;12.082;2022-11-09T12:06:04;99036.88;;;21.94;42.13
16100;BME280;8154;50.830;12.082;2022-11-09T12:12:08;99018.22;;;21.87;42.25
16100;BME280;8154;50.830;12.082;2022-11-09T12:15:18;99020.25;;;21.85;42.41
16100;BME280;8154;50.830;12.082;2022-11-09T12:18:28;99014.53;;;21.88;42.30
16100;BME280;8154;50.830;12.082;2022-11-09T12:21:19;99014.53;;;21.88;42.27
16100;BME280;8154;50.830;12.082;2022-11-09T12:30:24;99002.06;;;21.89;42.23
16100;BME280;8154;50.830;12.082;2022-11-09T12:33:15;99003.13;;;21.94;42.21
16100;BME280;8154;50.830;12.082;2022-11-09T12:36:08;98999.22;;;21.97;42.08
16100;BME280;8154;50.830;12.082;2022-11-09T12:39:24;99001.69;;;21.92;42.29
16100;BME280;8154;50.830;12.082;2022-11-09T12:42:24;99001.44;;;21.87;42.31
16100;BME280;8154;50.830;12.082;2022-11-09T12:51:13;98981.00;;;21.87;42.39
16100;BME280;8154;50.830;12.082;2022-11-09T12:53:59;98990.16;;;21.85;42.41
16100;BME280;8154;50.830;12.082;2022-11-09T12:56:55;98983.84;;;21.86;42.45
16100;BME280;8154;50.830;12.082;2022-11-09T13:08:19;99003.06;;;21.88;42.43
16100;BME280;8154;50.830;12.082;2022-11-09T13:11:24;99009.41;;;21.87;42.44
16100;BME280;8154;50.830;12.082;2022-11-09T13:32:03;99034.59;;;21.84;42.44
16100;BME280;8154;50.830;12.082;2022-11-09T13:34:50;99039.06;;;21.84;42.43
16100;BME280;8154;50.830;12.082;2022-11-09T13:43:25;99053.44;;;21.89;42.48
16100;BME280;8154;50.830;12.082;2022-11-09T13:46:25;99063.25;;;21.89;42.42
16100;BME280;8154;50.830;12.082;2022-11-09T13:55:37;99060.81;;;21.87;42.44
16100;BME280;8154;50.830;12.082;2022-11-09T14:04:30;99065.63;;;21.77;42.62
16100;BME280;8154;50.830;12.082;2022-11-09T14:07:27;99063.16;;;21.76;42.63
16100;BME280;8154;50.830;12.082;2022-11-09T14:14:02;99075.88;;;21.80;42.52
16100;BME280;8154;50.830;12.082;2022-11-09T14:19:52;99077.75;;;21.86;42.49
16100;BME280;8154;50.830;12.082;2022-11-09T14:22:41;99081.06;;;21.88;42.50
16100;BME280;8154;50.830;12.082;2022-11-09T14:25:25;99085.75;;;21.86;42.36
16100;BME280;8154;50.830;12.082;2022-11-09T14:28:20;99081.69;;;21.90;42.46
16100;BME280;8154;50.830;12.082;2022-11-09T14:31:04;99092.53;;;21.89;42.37
16100;BME280;8154;50.830;12.082;2022-11-09T14:34:03;99085.34;;;21.89;42.46
16100;BME280;8154;50.830;12.082;2022-11-09T14:36:48;99079.22;;;21.89;42.39
16100;BME280;8154;50.830;12.082;2022-11-09T14:39:33;99080.00;;;21.83;42.47
16100;BME280;8154;50.830;12.082;2022-11-09T14:42:20;99079.19;;;21.82;42.52
16100;BME280;8154;50.830;12.082;2022-11-09T14:45:13;99067.69;;;21.82;42.53
16100;BME280;8154;50.830;12.082;2022-11-09T14:47:58;99070.75;;;21.79;42.69
16100;BME280;8154;50.830;12.082;2022-11-09T14:50:43;99081.59;;;21.77;42.58
16100;BME280;8154;50.830;12.082;2022-11-09T14:53:30;99081.19;;;21.80;42.51
16100;BME280;8154;50.830;12.082;2022-11-09T14:56:17;99086.97;;;21.84;42.50
16100;BME280;8154;50.830;12.082;2022-11-09T14:59:08;99097.41;;;21.85;42.54
16100;BME280;8154;50.830;12.082;2022-11-09T15:02:05;99102.34;;;21.88;42.44
16100;BME280;8154;50.830;12.082;2022-11-09T15:04:59;99092.91;;;21.86;42.44
16100;BME280;8154;50.830;12.082;2022-11-09T15:07:47;99093.13;;;21.91;42.28
16100;BME280;8154;50.830;12.082;2022-11-09T15:10:34;99092.72;;;21.87;42.42
16100;BME280;8154;50.830;12.082;2022-11-09T15:13:36;99100.50;;;21.89;42.25
16100;BME280;8154;50.830;12.082;2022-11-09T15:16:23;99093.13;;;21.91;42.33
16100;BME280;8154;50.830;12.082;2022-11-09T15:19:47;99098.25;;;21.92;42.28
16100;BME280;8154;50.830;12.082;2022-11-09T15:25:33;99094.75;;;21.85;42.38
16100;BME280;8154;50.830;12.082;2022-11-09T15:28:24;99097.16;;;21.80;42.49
16100;BME280;8154;50.830;12.082;2022-11-09T15:31:11;99095.13;;;21.82;42.54
16100;BME280;8154;50.830;12.082;2022-11-09T15:33:57;99094.09;;;21.83;42.51
16100;BME280;8154;50.830;12.082;2022-11-09T15:36:42;99086.97;;;21.84;42.50
16100;BME280;8154;50.830;12.082;2022-11-09T15:39:26;99085.75;;;21.86;42.37
16100;BME280;8154;50.830;12.082;2022-11-09T15:42:11;99087.41;;;21.87;42.37
16100;BME280;8154;50.830;12.082;2022-11-09T15:44:58;99085.16;;;21.91;42.35
16100;BME280;8154;50.830;12.082;2022-11-09T15:48:02;99090.66;;;21.89;42.30
16100;BME280;8154;50.830;12.082;2022-11-09T15:50:47;99088.97;;;21.82;42.55
16100;BME280;8154;50.830;12.082;2022-11-09T15:53:31;99091.06;;;21.86;42.41
16100;BME280;8154;50.830;12.082;2022-11-09T15:56:19;99091.25;;;21.85;42.37
16100;BME280;8154;50.830;12.082;2022-11-09T15:59:04;99093.31;;;21.83;42.52
16100;BME280;8154;50.830;12.082;2022-11-09T16:01:49;99091.84;;;21.80;42.44
16100;BME280;8154;50.830;12.082;2022-11-09T16:04:34;99098.56;;;21.76;42.50
16100;BME280;8154;50.830;12.082;2022-11-09T16:07:18;99098.75;;;21.75;42.61
16100;BME280;8154;50.830;12.082;2022-11-09T16:10:03;99102.66;;;21.79;42.48
16100;BME280;8154;50.830;12.082;2022-11-09T16:12:50;99098.19;;;21.79;42.50
16100;BME280;8154;50.830;12.082;2022-11-09T16:15:36;99102.09;;;21.83;42.39
16100;BME280;8154;50.830;12.082;2022-11-09T16:18:21;99094.34;;;21.88;42.27
16100;BME280;8154;50.830;12.082;2022-11-09T16:21:14;99100.91;;;21.92;42.22
16100;BME280;8154;50.830;12.082;2022-11-09T16:23:59;99112.78;;;21.90;42.19
16100;BME280;8154;50.830;12.082;2022-11-09T16:26:42;99114.00;;;21.87;42.25
16100;BME280;8154;50.830;12.082;2022-11-09T16:29:29;99119.53;;;21.86;42.06
16100;BME280;8154;50.830;12.082;2022-11-09T16:32:14;99126.41;;;21.80;42.42
16100;BME280;8154;50.830;12.082;2022-11-09T16:34:59;99135.13;;;21.74;42.46
16100;BME280;8154;50.830;12.082;2022-11-09T16:37:43;99136.81;;;21.75;42.43